CheckWX is a tool to help pilots better visualize weather data.  It is not intended as a substitute for an official pre-flight weather briefing.

19:15:11 UTC

KOKB METAR
Bob Maxwell Memorial Airfield Airport
Oceanside, California, USA
Current

23 mins ago

KOKB 261852Z AUTO 25010KT 10SM OVC046 17/08 A2999 RMK AO2 SLP154 T01720078 $
Observed
May-26 @ 18:52 UTC
Wind
  • 250° at 10 KTS
Visibility
10 SM
Flight Rules
VFR
Cloud Levels
  • Overcast at 4,600' AGL
Temperature
17°C / 63°F
Dewpoint
C / 46°F
Humidity
56%
Altimeter
29.99" Hg
Pressure
1015.62 hPa
Previous

1 hour ago

KOKB 261752Z AUTO 24009KT 10SM FEW032 BKN039 OVC055 16/08 A2997 RMK AO2 SLP148 60000 T01610083 10167 20139 51021 $
Observed
May-26 @ 17:52 UTC
Wind
  • 240° at 9 KTS
Visibility
10 SM
Flight Rules
VFR
Cloud Levels
  • Few at 3,200' AGL
  • Broken at 3,900' AGL
  • Overcast at 5,500' AGL
Temperature
16°C / 61°F
Dewpoint
C / 46°F
Humidity
59%
Altimeter
29.97" Hg
Pressure
1014.92 hPa
Previous

2 hours ago

KOKB 261652Z AUTO 26008KT 10SM BKN038 OVC046 16/09 A2995 RMK AO2 SLP140 T01610089 $
Observed
May-26 @ 16:52 UTC
Wind
  • 260° at 8 KTS
Visibility
10 SM
Flight Rules
VFR
Cloud Levels
  • Broken at 3,800' AGL
  • Overcast at 4,600' AGL
Temperature
16°C / 61°F
Dewpoint
C / 48°F
Humidity
63%
Altimeter
29.95" Hg
Pressure
1014.22 hPa